createdAt,value
2018-03-27T00:01:41.403Z,11.50
2018-03-27T00:04:10.623Z,13.60
2018-03-27T00:06:40.391Z,15.83
2018-03-27T00:09:09.775Z,15.33
2018-03-27T00:11:38.484Z,13.13
2018-03-27T00:14:08.754Z,15.53
2018-03-27T00:16:38.067Z,14.67
2018-03-27T00:19:06.437Z,16.10
2018-03-27T00:21:35.473Z,16.40
2018-03-27T00:24:05.851Z,19.90
2018-03-27T00:26:34.221Z,16.80
2018-03-27T00:29:14.422Z,15.33
2018-03-27T00:32:01.767Z,18.60
2018-03-27T00:34:47.837Z,16.67
2018-03-27T00:37:34.719Z,25.03
2018-03-27T00:40:21.000Z,18.77
2018-03-27T00:43:00.685Z,17.57
2018-03-27T00:45:30.041Z,17.43
2018-03-27T00:47:59.916Z,20.53
2018-03-27T00:50:29.682Z,25.00
2018-03-27T00:52:58.075Z,19.80
2018-03-27T00:55:28.092Z,15.97
2018-03-27T00:57:56.420Z,16.20
2018-03-27T01:00:28.696Z,16.90
2018-03-27T01:02:59.434Z,16.83
2018-03-27T01:05:28.224Z,20.00
2018-03-27T01:07:58.348Z,22.73
2018-03-27T01:10:27.692Z,18.43
2018-03-27T01:12:56.822Z,17.63
2018-03-27T01:15:26.226Z,15.00
2018-03-27T01:17:54.564Z,18.03
2018-03-27T01:20:24.661Z,17.63
2018-03-27T01:22:53.279Z,19.80
2018-03-27T01:25:23.339Z,17.17
2018-03-27T01:27:51.670Z,13.20
2018-03-27T01:30:20.330Z,15.87
2018-03-27T01:32:48.747Z,19.30
2018-03-27T01:35:18.425Z,15.63
2018-03-27T01:37:46.855Z,15.87
2018-03-27T01:40:16.440Z,15.63
2018-03-27T01:42:45.725Z,13.50
2018-03-27T01:45:14.541Z,15.20
2018-03-27T01:47:42.859Z,14.43
2018-03-27T01:50:11.258Z,15.80
2018-03-27T01:52:40.463Z,14.17
2018-03-27T01:55:09.291Z,11.83
2018-03-27T01:57:38.405Z,10.57
2018-03-27T02:00:07.662Z,10.83
2018-03-27T02:02:36.803Z,8.53
2018-03-27T02:05:05.884Z,8.40
2018-03-27T02:07:34.649Z,9.07
2018-03-27T02:10:04.512Z,10.07
2018-03-27T02:12:38.494Z,11.13
2018-03-27T02:15:12.708Z,10.37
2018-03-27T02:17:47.342Z,11.10
2018-03-27T02:20:23.391Z,11.67
2018-03-27T02:22:56.032Z,8.37
2018-03-27T02:25:24.386Z,7.97
2018-03-27T02:27:53.100Z,12.23
2018-03-27T02:30:21.537Z,10.00
2018-03-27T02:32:50.226Z,10.20
2018-03-27T02:35:19.527Z,13.57
2018-03-27T02:37:47.850Z,10.43
2018-03-27T02:40:16.211Z,9.53
2018-03-27T02:42:44.569Z,11.20
2018-03-27T02:45:12.977Z,12.07
2018-03-27T02:47:42.322Z,15.93
2018-03-27T02:50:10.655Z,14.53
2018-03-27T02:52:39.022Z,14.73
2018-03-27T02:55:07.562Z,14.60
2018-03-27T02:57:36.331Z,15.90
2018-03-27T03:00:04.673Z,18.97
2018-03-27T03:02:33.696Z,17.47
2018-03-27T03:05:02.063Z,15.97
2018-03-27T03:07:30.708Z,17.90
2018-03-27T03:09:59.034Z,16.13
2018-03-27T03:12:27.911Z,16.33
2018-03-27T03:14:58.320Z,15.10
2018-03-27T03:17:26.909Z,14.40
2018-03-27T03:19:56.966Z,12.27
2018-03-27T03:22:26.293Z,15.93
2018-03-27T03:24:54.703Z,17.03
2018-03-27T03:27:24.800Z,13.30
2018-03-27T03:29:53.114Z,13.87
2018-03-27T03:32:21.478Z,13.63
2018-03-27T03:34:51.199Z,11.83
2018-03-27T03:37:20.318Z,13.70
2018-03-27T03:39:48.639Z,14.13
2018-03-27T03:42:16.993Z,13.77
2018-03-27T03:44:46.173Z,13.37
2018-03-27T03:47:15.668Z,15.37
2018-03-27T03:49:45.007Z,10.73
2018-03-27T03:52:14.717Z,12.70
2018-03-27T03:54:43.092Z,13.27
2018-03-27T03:57:12.441Z,14.67
2018-03-27T03:59:40.775Z,14.73
2018-03-27T04:02:09.167Z,13.83
2018-03-27T04:04:38.399Z,13.37
2018-03-27T04:07:06.763Z,14.60
2018-03-27T04:09:35.179Z,13.77
2018-03-27T04:12:03.900Z,12.47
2018-03-27T04:14:32.256Z,13.17
2018-03-27T04:17:02.251Z,13.47
2018-03-27T04:19:30.704Z,14.60
2018-03-27T04:22:00.859Z,16.37
2018-03-27T04:24:30.869Z,22.37
2018-03-27T04:26:59.234Z,17.10
2018-03-27T04:29:27.802Z,34.03
2018-03-27T04:31:56.201Z,20.53
2018-03-27T04:34:24.535Z,15.63
2018-03-27T04:36:55.844Z,18.03
2018-03-27T04:39:24.288Z,13.60
2018-03-27T04:41:52.688Z,12.23
2018-03-27T04:44:21.003Z,11.47
2018-03-27T04:46:49.480Z,13.80
2018-03-27T04:49:17.808Z,13.97
2018-03-27T04:51:46.409Z,10.97
2018-03-27T04:54:14.732Z,12.97
2018-03-27T04:56:43.171Z,14.03
2018-03-27T04:59:13.189Z,12.53
2018-03-27T05:01:42.356Z,15.23
2018-03-27T05:04:11.563Z,14.13
2018-03-27T05:06:41.714Z,13.07
2018-03-27T05:09:11.898Z,13.83
2018-03-27T05:11:40.247Z,16.00
2018-03-27T05:14:08.562Z,12.67
2018-03-27T05:16:37.159Z,16.83
2018-03-27T05:19:05.542Z,16.63
2018-03-27T05:21:33.906Z,13.93
2018-03-27T05:24:03.373Z,13.50
2018-03-27T05:26:31.769Z,13.60
2018-03-27T05:29:00.170Z,13.93
2018-03-27T05:31:29.207Z,14.73
2018-03-27T05:33:58.270Z,16.90
2018-03-27T05:36:26.635Z,15.13
2018-03-27T05:38:55.209Z,13.53
2018-03-27T05:41:25.738Z,16.50
2018-03-27T05:43:54.431Z,12.50
2018-03-27T05:46:23.610Z,14.87
2018-03-27T05:48:52.867Z,13.23
2018-03-27T05:51:22.065Z,15.83
2018-03-27T05:53:51.175Z,13.63
2018-03-27T05:56:20.418Z,14.97
2018-03-27T05:58:50.028Z,14.03
2018-03-27T06:01:19.895Z,14.73
2018-03-27T06:03:48.619Z,15.57
2018-03-27T06:06:17.403Z,15.23
2018-03-27T06:08:46.583Z,16.80
2018-03-27T06:11:15.000Z,19.27
2018-03-27T06:13:44.089Z,14.93
2018-03-27T06:16:12.697Z,13.50
2018-03-27T06:18:41.118Z,13.17
2018-03-27T06:21:10.278Z,14.43
2018-03-27T06:23:38.687Z,13.13
2018-03-27T06:26:07.019Z,10.97
2018-03-27T06:28:35.496Z,14.10
2018-03-27T06:31:03.863Z,14.63
2018-03-27T06:33:33.064Z,17.43
2018-03-27T06:36:01.428Z,15.97
2018-03-27T06:38:32.578Z,48.00
2018-03-27T06:41:01.160Z,26.23
2018-03-27T06:43:29.526Z,16.13
2018-03-27T06:45:58.824Z,17.37
2018-03-27T06:48:27.182Z,17.07
2018-03-27T06:50:56.355Z,19.50
2018-03-27T06:53:24.729Z,20.07
2018-03-27T06:55:53.120Z,22.40
2018-03-27T06:58:22.363Z,16.23
2018-03-27T07:00:50.715Z,14.37
2018-03-27T07:03:22.579Z,12.80
2018-03-27T07:05:50.910Z,15.60
2018-03-27T07:08:20.104Z,14.40
2018-03-27T07:10:49.058Z,17.00
2018-03-27T07:13:17.425Z,15.93
2018-03-27T07:15:45.834Z,16.03
2018-03-27T07:18:15.956Z,13.83
2018-03-27T07:20:47.917Z,16.57
2018-03-27T07:23:19.024Z,20.33
2018-03-27T07:25:47.447Z,21.73
2018-03-27T07:28:15.819Z,19.80
2018-03-27T07:30:45.314Z,19.50
2018-03-27T07:33:13.680Z,17.30
2018-03-27T07:35:42.688Z,20.20
2018-03-27T07:38:12.713Z,17.23
2018-03-27T07:40:41.060Z,17.60
2018-03-27T07:43:10.739Z,18.33
2018-03-27T07:45:39.098Z,27.37
2018-03-27T07:48:08.440Z,25.13
2018-03-27T07:50:37.596Z,27.47
2018-03-27T07:53:06.244Z,26.23
2018-03-27T07:55:35.417Z,25.70
2018-03-27T07:58:05.099Z,26.20
2018-03-27T08:00:34.276Z,27.93
2018-03-27T08:03:03.467Z,29.17
2018-03-27T08:05:32.687Z,34.17
2018-03-27T08:08:01.960Z,46.17
2018-03-27T08:10:30.656Z,42.87
2018-03-27T08:12:58.987Z,47.57
2018-03-27T08:15:27.358Z,46.53
2018-03-27T08:17:56.365Z,37.30
2018-03-27T08:20:28.227Z,42.77
2018-03-27T08:22:57.492Z,38.00
2018-03-27T08:25:26.840Z,38.10
2018-03-27T08:27:55.339Z,38.77
2018-03-27T08:30:23.747Z,36.13
2018-03-27T08:32:52.082Z,39.33
2018-03-27T08:35:20.448Z,35.10
2018-03-27T08:37:49.828Z,34.73
2018-03-27T08:40:18.327Z,38.43
2018-03-27T08:42:46.656Z,34.73
2018-03-27T08:45:15.967Z,34.33
2018-03-27T08:47:48.206Z,30.77
2018-03-27T08:50:17.717Z,30.07
2018-03-27T08:52:46.864Z,31.37
2018-03-27T08:55:18.661Z,31.40
2018-03-27T08:57:48.243Z,37.87
2018-03-27T09:00:16.642Z,32.13
2018-03-27T09:02:45.855Z,30.30
2018-03-27T09:05:15.048Z,31.30
2018-03-27T09:07:44.358Z,30.50
2018-03-27T09:10:12.910Z,30.80
2018-03-27T09:12:41.315Z,28.40
2018-03-27T09:15:09.733Z,32.17
2018-03-27T09:17:40.834Z,29.80
2018-03-27T09:20:09.165Z,29.13
2018-03-27T09:22:37.523Z,31.40
2018-03-27T09:25:05.912Z,31.10
2018-03-27T09:27:35.020Z,28.60
2018-03-27T09:30:04.084Z,27.67
2018-03-27T09:32:32.442Z,30.43
2018-03-27T09:35:01.951Z,27.47
2018-03-27T09:37:31.278Z,24.47
2018-03-27T09:39:59.618Z,28.53
2018-03-27T09:42:28.862Z,26.40
2018-03-27T09:44:57.252Z,26.47
2018-03-27T09:47:26.531Z,29.90
2018-03-27T09:49:55.436Z,30.07
2018-03-27T09:52:24.472Z,31.03
2018-03-27T09:54:52.809Z,32.27
2018-03-27T09:57:21.172Z,34.83
2018-03-27T09:59:50.373Z,29.67
2018-03-27T10:02:20.610Z,28.47
2018-03-27T10:04:49.863Z,29.07
2018-03-27T10:07:18.465Z,30.17
2018-03-27T10:09:48.501Z,26.03
2018-03-27T10:12:16.875Z,28.03
2018-03-27T10:14:46.044Z,28.53
2018-03-27T10:17:15.170Z,31.07
2018-03-27T10:19:44.734Z,32.33
2018-03-27T10:22:13.761Z,30.20
2018-03-27T10:24:43.357Z,30.97
2018-03-27T10:27:11.764Z,29.37
2018-03-27T10:29:41.054Z,30.47
2018-03-27T10:32:10.218Z,31.07
2018-03-27T10:34:38.569Z,26.63
2018-03-27T10:37:07.143Z,29.87
2018-03-27T10:39:36.534Z,31.57
2018-03-27T10:42:05.512Z,28.40
2018-03-27T10:44:34.043Z,26.77
2018-03-27T10:47:02.993Z,28.83
2018-03-27T10:49:31.493Z,26.83
2018-03-27T10:52:00.624Z,27.83
2018-03-27T10:54:29.344Z,26.87
2018-03-27T10:56:58.649Z,26.17
2018-03-27T10:59:27.358Z,30.17
2018-03-27T11:01:56.618Z,28.80
2018-03-27T11:04:24.992Z,25.67
2018-03-27T11:06:53.398Z,24.93
2018-03-27T11:09:23.948Z,22.50
2018-03-27T11:11:53.120Z,21.77
2018-03-27T11:14:21.545Z,19.87
2018-03-27T11:16:51.294Z,26.40
2018-03-27T11:19:19.676Z,25.03
2018-03-27T11:21:48.828Z,26.00
2018-03-27T11:24:18.118Z,28.33
2018-03-27T11:26:47.074Z,28.77
2018-03-27T11:29:16.574Z,28.03
2018-03-27T11:31:45.621Z,37.70
2018-03-27T11:34:15.424Z,30.93
2018-03-27T11:36:45.614Z,28.13
2018-03-27T11:39:14.333Z,32.13
2018-03-27T11:41:43.073Z,31.23
2018-03-27T11:44:12.132Z,31.17
2018-03-27T11:46:40.750Z,30.10
2018-03-27T11:49:10.510Z,30.73
2018-03-27T11:51:39.696Z,30.77
2018-03-27T11:54:08.285Z,29.10
2018-03-27T11:56:37.200Z,30.50
2018-03-27T11:59:05.988Z,31.57
2018-03-27T12:01:35.814Z,34.23
2018-03-27T12:04:04.978Z,32.60
2018-03-27T12:06:35.291Z,32.17
2018-03-27T12:09:03.653Z,32.73
2018-03-27T12:11:33.624Z,31.07
2018-03-27T12:14:02.750Z,33.20
2018-03-27T12:16:32.424Z,32.10
2018-03-27T12:19:02.524Z,33.47
2018-03-27T12:21:31.300Z,30.67
2018-03-27T12:24:03.595Z,29.93
2018-03-27T12:26:31.993Z,30.80
2018-03-27T12:29:01.527Z,25.70
2018-03-27T12:31:29.863Z,27.03
2018-03-27T12:33:59.261Z,29.43
2018-03-27T12:36:29.161Z,31.03
2018-03-27T12:38:57.628Z,27.80
2018-03-27T12:41:27.549Z,29.17
2018-03-27T12:43:58.680Z,24.90
2018-03-27T12:46:28.244Z,26.03
2018-03-27T12:48:57.445Z,26.03
2018-03-27T12:51:26.735Z,42.13
2018-03-27T12:53:55.942Z,34.23
2018-03-27T12:56:25.317Z,23.13
2018-03-27T12:58:53.675Z,25.90
2018-03-27T13:01:23.026Z,21.83
2018-03-27T13:03:52.458Z,24.70
2018-03-27T13:06:21.665Z,22.80
2018-03-27T13:08:50.829Z,22.33
2018-03-27T13:11:20.329Z,20.27
2018-03-27T13:13:50.195Z,21.70
2018-03-27T13:16:18.618Z,19.93
2018-03-27T13:18:47.756Z,18.03
2018-03-27T13:21:16.109Z,17.63
2018-03-27T13:23:48.291Z,24.30
2018-03-27T13:26:16.891Z,24.60
2018-03-27T13:28:45.301Z,23.03
2018-03-27T13:31:15.370Z,26.53
2018-03-27T13:33:44.175Z,27.63
2018-03-27T13:36:13.371Z,26.43
2018-03-27T13:38:42.543Z,24.93
2018-03-27T13:41:11.757Z,26.37
2018-03-27T13:43:40.230Z,25.90
2018-03-27T13:46:09.931Z,30.07
2018-03-27T13:48:38.405Z,26.80
2018-03-27T13:51:06.759Z,26.23
2018-03-27T13:53:35.279Z,31.23
2018-03-27T13:56:04.441Z,30.37
2018-03-27T13:58:32.820Z,28.53
2018-03-27T14:01:02.595Z,31.50
2018-03-27T14:03:32.093Z,30.60
2018-03-27T14:06:01.163Z,27.10
2018-03-27T14:08:29.779Z,33.00
2018-03-27T14:10:59.123Z,30.17
2018-03-27T14:13:28.151Z,30.03
2018-03-27T14:15:56.555Z,29.77
2018-03-27T14:18:25.839Z,31.37
2018-03-27T14:20:58.802Z,29.70
2018-03-27T14:23:28.778Z,31.80
2018-03-27T14:25:58.007Z,32.93
2018-03-27T14:28:34.283Z,33.63
2018-03-27T14:31:04.235Z,32.17
2018-03-27T14:33:33.358Z,35.17
2018-03-27T14:36:02.550Z,32.87
2018-03-27T14:38:31.669Z,28.50
2018-03-27T14:41:01.691Z,29.73
2018-03-27T14:43:30.040Z,30.80
2018-03-27T14:45:59.144Z,30.70
2018-03-27T14:48:27.482Z,27.80
2018-03-27T14:50:56.698Z,29.17
2018-03-27T14:53:27.244Z,29.37
2018-03-27T14:55:57.520Z,29.80
2018-03-27T14:58:25.862Z,28.73
2018-03-27T15:00:57.605Z,32.67
2018-03-27T15:03:26.805Z,30.40
2018-03-27T15:05:55.302Z,27.50
2018-03-27T15:08:25.465Z,30.67
2018-03-27T15:10:54.311Z,27.93
2018-03-27T15:13:22.652Z,25.60
2018-03-27T15:15:57.898Z,28.53
2018-03-27T15:18:29.221Z,31.07
2018-03-27T15:20:59.007Z,27.93
2018-03-27T15:23:27.800Z,30.47
2018-03-27T15:25:59.226Z,30.50
2018-03-27T15:28:28.190Z,30.90
2018-03-27T15:30:57.682Z,30.70
2018-03-27T15:33:26.083Z,27.87
2018-03-27T15:35:55.275Z,30.80
2018-03-27T15:38:23.755Z,29.53
2018-03-27T15:40:52.213Z,30.23
2018-03-27T15:43:22.582Z,30.53
2018-03-27T15:45:51.888Z,26.27
2018-03-27T15:48:22.104Z,30.13
2018-03-27T15:50:51.415Z,30.87
2018-03-27T15:53:20.515Z,29.63
2018-03-27T15:55:49.484Z,26.87
2018-03-27T15:58:17.902Z,27.53
2018-03-27T16:00:47.173Z,27.90
2018-03-27T16:03:16.438Z,28.67
2018-03-27T16:05:45.636Z,28.13
2018-03-27T16:08:14.920Z,31.13
2018-03-27T16:10:43.999Z,31.37
2018-03-27T16:13:14.819Z,27.53
2018-03-27T16:15:43.955Z,28.70
2018-03-27T16:18:13.793Z,29.27
2018-03-27T16:20:48.757Z,28.47
2018-03-27T16:23:17.181Z,29.10
2018-03-27T16:25:47.926Z,27.83
2018-03-27T16:28:17.383Z,31.90
2018-03-27T16:30:46.528Z,26.77
2018-03-27T16:33:15.951Z,30.67
2018-03-27T16:35:44.469Z,29.03
2018-03-27T16:38:13.435Z,30.20
2018-03-27T16:40:46.493Z,30.63
2018-03-27T16:43:15.944Z,31.17
2018-03-27T16:45:46.022Z,29.80
2018-03-27T16:48:14.395Z,31.27
2018-03-27T16:50:43.145Z,33.30
2018-03-27T16:53:12.428Z,34.40
2018-03-27T16:55:40.903Z,32.47
2018-03-27T16:58:11.301Z,31.40
2018-03-27T17:00:41.042Z,36.30
2018-03-27T17:03:09.477Z,32.67
2018-03-27T17:05:39.889Z,33.13
2018-03-27T17:08:14.326Z,34.03
2018-03-27T17:10:44.531Z,34.00
2018-03-27T17:13:14.748Z,44.03
2018-03-27T17:15:43.529Z,34.93
2018-03-27T17:18:11.935Z,34.37
2018-03-27T17:20:41.929Z,34.27
2018-03-27T17:23:10.356Z,33.77
2018-03-27T17:25:39.603Z,36.40
2018-03-27T17:28:08.028Z,36.33
2018-03-27T17:30:39.271Z,39.17
2018-03-27T17:33:08.452Z,34.10
2018-03-27T17:35:36.844Z,34.50
2018-03-27T17:38:06.631Z,37.10
2018-03-27T17:40:35.625Z,36.63
2018-03-27T17:43:04.039Z,34.33
2018-03-27T17:45:32.380Z,36.00
2018-03-27T17:48:01.851Z,39.10
2018-03-27T17:50:32.955Z,36.20
2018-03-27T17:53:01.423Z,38.67
2018-03-27T17:55:31.359Z,41.80
2018-03-27T17:58:00.059Z,42.80
2018-03-27T18:00:29.326Z,41.40
2018-03-27T18:05:33.196Z,45.37
2018-03-27T18:08:02.561Z,44.50
2018-03-27T18:10:33.891Z,43.27
2018-03-27T18:13:02.903Z,40.07
2018-03-27T18:15:31.374Z,42.57
2018-03-27T18:18:00.603Z,46.00
2018-03-27T18:20:29.052Z,49.80
2018-03-27T18:22:59.334Z,49.03
2018-03-27T18:25:28.299Z,49.73
2018-03-27T18:27:57.599Z,47.87
2018-03-27T18:30:27.200Z,49.83
2018-03-27T18:32:57.370Z,50.70
2018-03-27T18:35:26.321Z,54.87
2018-03-27T18:37:55.608Z,53.97
2018-03-27T18:40:27.577Z,59.73
2018-03-27T18:42:57.082Z,54.47
2018-03-27T18:45:25.420Z,57.70
2018-03-27T18:47:57.705Z,55.30
2018-03-27T18:50:29.213Z,53.40
2018-03-27T18:52:57.685Z,58.17
2018-03-27T18:55:26.538Z,52.33
2018-03-27T18:57:55.974Z,48.47
2018-03-27T19:00:25.107Z,48.47
2018-03-27T19:02:53.521Z,59.47
2018-03-27T19:05:23.602Z,52.77
2018-03-27T19:07:53.340Z,57.87
2018-03-27T19:10:21.790Z,59.07
2018-03-27T19:12:50.155Z,56.00
2018-03-27T19:15:18.527Z,48.17
2018-03-27T19:17:47.701Z,47.53
2018-03-27T19:20:16.099Z,46.13
2018-03-27T19:22:45.276Z,50.17
2018-03-27T19:25:13.601Z,47.47
2018-03-27T19:27:42.114Z,43.83
2018-03-27T19:30:13.177Z,40.77
2018-03-27T19:32:44.278Z,41.27
2018-03-27T19:35:12.667Z,40.80
2018-03-27T19:37:41.883Z,41.37
2018-03-27T19:40:13.284Z,40.57
2018-03-27T19:42:43.115Z,41.23
2018-03-27T19:45:11.612Z,46.27
2018-03-27T19:47:41.282Z,42.23
2018-03-27T19:50:10.478Z,47.27
2018-03-27T19:52:38.963Z,45.13
2018-03-27T19:55:08.290Z,47.50
2018-03-27T19:57:37.843Z,48.10
2018-03-27T20:00:06.182Z,45.17
2018-03-27T20:02:35.511Z,53.87
2018-03-27T20:05:03.874Z,53.10
2018-03-27T20:07:32.766Z,55.80
2018-03-27T20:10:02.777Z,59.10
2018-03-27T20:12:31.142Z,55.17
2018-03-27T20:15:00.675Z,54.70
2018-03-27T20:17:30.016Z,58.00
2018-03-27T20:19:58.403Z,62.17
2018-03-27T20:22:28.473Z,67.90
2018-03-27T20:24:56.880Z,59.13
2018-03-27T20:27:25.994Z,59.67
2018-03-27T20:29:54.569Z,62.53
2018-03-27T20:32:23.740Z,61.40
2018-03-27T20:34:52.306Z,70.23
2018-03-27T20:37:21.502Z,66.07
2018-03-27T20:39:50.267Z,66.87
2018-03-27T20:42:19.751Z,62.80
2018-03-27T20:44:48.904Z,68.50
2018-03-27T20:47:17.390Z,63.67
2018-03-27T20:49:46.544Z,72.30
2018-03-27T20:52:17.205Z,64.20
2018-03-27T20:54:48.075Z,71.37
2018-03-27T20:57:19.068Z,70.57
2018-03-27T20:59:48.632Z,58.57
2018-03-27T21:02:17.788Z,61.40
2018-03-27T21:04:47.976Z,60.70
2018-03-27T21:07:17.524Z,62.73
2018-03-27T21:09:45.911Z,61.43
2018-03-27T21:12:14.330Z,55.07
2018-03-27T21:14:43.620Z,61.07
2018-03-27T21:17:13.563Z,48.43
2018-03-27T21:19:41.929Z,53.03
2018-03-27T21:22:10.298Z,52.20
2018-03-27T21:24:39.200Z,49.47
2018-03-27T21:27:07.768Z,48.57
2018-03-27T21:29:38.619Z,50.57
2018-03-27T21:32:06.962Z,55.37
2018-03-27T21:34:35.419Z,53.43
2018-03-27T21:37:04.720Z,52.83
2018-03-27T21:39:33.263Z,52.07
2018-03-27T21:42:03.357Z,56.27
2018-03-27T21:44:32.983Z,54.17
2018-03-27T21:47:02.715Z,60.23
2018-03-27T21:49:31.995Z,60.13
2018-03-27T21:52:01.020Z,65.97
2018-03-27T21:54:31.330Z,60.77
2018-03-27T21:56:59.979Z,69.13
2018-03-27T21:59:29.378Z,64.30
2018-03-27T22:02:00.125Z,62.87
2018-03-27T22:04:28.541Z,59.37
2018-03-27T22:06:57.325Z,60.73
2018-03-27T22:09:28.052Z,58.70
2018-03-27T22:11:56.507Z,55.53
2018-03-27T22:14:25.360Z,58.10
2018-03-27T22:16:54.115Z,54.37
2018-03-27T22:19:22.532Z,52.97
2018-03-27T22:21:52.429Z,57.30
2018-03-27T22:24:23.618Z,54.47
2018-03-27T22:26:54.423Z,51.97
2018-03-27T22:29:25.014Z,58.60
2018-03-27T22:31:54.185Z,56.40
2018-03-27T22:34:23.471Z,53.63
2018-03-27T22:36:51.854Z,58.03
2018-03-27T22:39:20.440Z,58.47
2018-03-27T22:41:50.552Z,60.60
2018-03-27T22:44:18.943Z,63.87
2018-03-27T22:46:47.265Z,60.13
2018-03-27T22:49:15.726Z,62.03
2018-03-27T22:51:44.764Z,59.03
2018-03-27T22:54:13.463Z,62.03
2018-03-27T22:56:44.526Z,62.27
2018-03-27T23:01:47.444Z,58.50
2018-03-27T23:04:16.288Z,57.97
2018-03-27T23:06:46.368Z,63.83
2018-03-27T23:09:15.983Z,60.27
2018-03-27T23:11:45.755Z,60.87
2018-03-27T23:14:15.776Z,61.10
2018-03-27T23:16:45.359Z,64.27
2018-03-27T23:19:14.610Z,61.33
2018-03-27T23:21:45.644Z,61.93
2018-03-27T23:24:14.194Z,59.73
2018-03-27T23:26:42.984Z,55.67
2018-03-27T23:29:12.195Z,65.20
2018-03-27T23:31:41.273Z,60.67
2018-03-27T23:34:10.538Z,55.60
2018-03-27T23:36:39.158Z,59.57
2018-03-27T23:39:09.654Z,69.47
2018-03-27T23:41:38.039Z,64.97
2018-03-27T23:44:06.517Z,63.87
2018-03-27T23:46:35.759Z,65.23
2018-03-27T23:49:04.445Z,65.50
2018-03-27T23:51:34.140Z,62.83
2018-03-27T23:54:03.324Z,71.60
2018-03-27T23:56:32.605Z,65.07
2018-03-27T23:59:00.988Z,62.80
